Time;durP1;ratioP1;P1;durP2;ratioP2;P2;SDS_P1;SDS_P2;PMS_P1;PMS_P2;Temp;Humidity;BMP_temperature;BMP_pressure;BME280_temperature;BME280_humidity;BME280_pressure;Samples;Min_cycle;Max_cycle;Signal;HPM_P1;HPM_P2
2022/04/19 00:02:05;;;;;;;5.95;4.70;;;8.30;65.50;;;;;;5134608;27;20203;-58
2022/04/19 00:04:32;;;;;;;6.32;4.80;;;8.20;65.80;;;;;;5134164;27;20215;-57
2022/04/19 00:06:59;;;;;;;4.80;4.30;;;8.20;66.30;;;;;;5134170;27;20239;-58
2022/04/19 00:09:27;;;;;;;5.18;4.68;;;8.10;66.60;;;;;;5134389;27;20203;-57
2022/04/19 00:11:55;;;;;;;5.93;4.40;;;8.10;67.00;;;;;;5134631;27;20199;-58
2022/04/19 00:14:22;;;;;;;5.10;4.30;;;8.10;67.40;;;;;;5134028;28;20643;-58
2022/04/19 00:16:49;;;;;;;6.20;5.10;;;8.10;67.80;;;;;;5134111;28;20199;-57
2022/04/19 00:19:16;;;;;;;5.95;4.72;;;8.10;68.00;;;;;;5134127;28;20194;-57
2022/04/19 00:21:43;;;;;;;5.40;4.30;;;8.00;68.20;;;;;;5134472;28;20198;-58
2022/04/19 00:24:10;;;;;;;5.47;4.20;;;8.00;68.40;;;;;;5134253;27;20226;-57
2022/04/19 00:26:39;;;;;;;4.72;4.05;;;8.00;68.70;;;;;;5138237;27;20593;-58
2022/04/19 00:29:06;;;;;;;4.47;4.00;;;8.00;69.00;;;;;;5138219;27;20210;-58
2022/04/19 00:31:33;;;;;;;7.32;4.57;;;8.00;69.30;;;;;;5138179;27;20191;-58
2022/04/19 00:34:00;;;;;;;4.85;4.15;;;7.90;69.40;;;;;;5137688;27;20233;-58
2022/04/19 00:36:28;;;;;;;5.30;4.63;;;7.90;69.90;;;;;;5138038;27;20199;-57
2022/04/19 00:38:56;;;;;;;4.57;3.97;;;7.90;70.30;;;;;;5138160;27;20198;-58
2022/04/19 00:41:23;;;;;;;6.13;4.88;;;7.80;70.50;;;;;;5138214;27;20198;-57
2022/04/19 00:43:51;;;;;;;5.35;4.57;;;7.80;70.90;;;;;;5138122;27;20241;-58
2022/04/19 00:46:19;;;;;;;7.78;4.50;;;7.70;71.30;;;;;;5138142;27;20199;-58
2022/04/19 00:48:46;;;;;;;9.45;4.80;;;7.70;71.80;;;;;;5137769;27;20693;-58
2022/04/19 00:51:14;;;;;;;5.60;3.90;;;7.60;72.40;;;;;;5138132;27;20203;-58
2022/04/19 00:53:43;;;;;;;5.00;4.07;;;7.60;72.80;;;;;;5138080;27;20228;-59
2022/04/19 00:56:10;;;;;;;7.63;4.63;;;7.60;72.90;;;;;;5138148;27;20226;-57
2022/04/19 00:58:37;;;;;;;5.40;4.72;;;7.60;73.20;;;;;;5137763;27;20560;-58
2022/04/19 01:01:05;;;;;;;4.70;3.88;;;7.60;73.60;;;;;;5137718;27;20574;-58
2022/04/19 01:03:32;;;;;;;4.85;4.35;;;7.50;73.90;;;;;;5137757;27;20215;-59
2022/04/19 01:06:00;;;;;;;5.50;4.35;;;7.50;74.90;;;;;;5137733;27;20273;-58
2022/04/19 01:08:29;;;;;;;5.13;4.45;;;7.50;74.60;;;;;;5137713;27;20560;-58
2022/04/19 01:13:37;;;;;;;5.72;4.43;;;7.40;75.10;;;;;;5136345;27;20211;-56
2022/04/19 01:16:06;;;;;;;9.18;6.22;;;7.40;75.40;;;;;;5138063;27;20552;-58
2022/04/19 01:18:34;;;;;;;7.57;4.95;;;7.40;75.90;;;;;;5137692;27;20227;-57
2022/04/19 01:21:01;;;;;;;4.75;4.25;;;7.30;76.20;;;;;;5137052;27;20195;-57
2022/04/19 01:23:30;;;;;;;5.90;5.00;;;7.30;76.60;;;;;;5137026;27;20605;-57
2022/04/19 01:25:58;;;;;;;5.65;5.10;;;7.30;76.60;;;;;;5137468;27;20643;-57
2022/04/19 01:28:25;;;;;;;5.20;4.43;;;7.30;76.90;;;;;;5136885;27;20256;-57
2022/04/19 01:30:54;;;;;;;4.97;4.47;;;7.30;77.20;;;;;;5136805;27;20691;-56
2022/04/19 01:33:22;;;;;;;4.72;4.22;;;7.20;77.40;;;;;;5136766;27;20227;-57
2022/04/19 01:35:49;;;;;;;5.93;5.22;;;7.20;77.90;;;;;;5136355;27;20757;-57
2022/04/19 01:38:16;;;;;;;5.00;4.50;;;7.10;78.50;;;;;;5136311;27;20195;-58
2022/04/19 01:40:44;;;;;;;4.80;4.40;;;7.10;79.00;;;;;;5136544;27;20206;-57
2022/04/19 01:43:11;;;;;;;5.43;4.75;;;7.10;79.30;;;;;;5136414;27;20226;-58
2022/04/19 01:45:40;;;;;;;5.10;4.55;;;7.00;79.70;;;;;;5136429;27;20202;-57
2022/04/19 01:48:08;;;;;;;4.90;4.47;;;7.00;80.20;;;;;;5136704;27;20248;-57
2022/04/19 01:50:38;;;;;;;8.85;4.90;;;7.00;81.10;;;;;;5136738;27;20199;-58
2022/04/19 01:53:06;;;;;;;4.93;4.30;;;7.00;81.70;;;;;;5136651;27;20264;-57
2022/04/19 01:55:33;;;;;;;4.07;3.63;;;6.90;81.40;;;;;;5137767;27;20222;-57
2022/04/19 01:58:02;;;;;;;7.13;5.03;;;6.90;81.80;;;;;;5136371;27;20566;-58
2022/04/19 02:00:30;;;;;;;4.90;4.32;;;6.90;82.10;;;;;;5136269;27;20221;-57
2022/04/19 02:02:58;;;;;;;5.10;4.57;;;6.90;82.50;;;;;;5136607;27;20305;-57
2022/04/19 02:05:26;;;;;;;6.57;4.70;;;6.80;82.70;;;;;;5136596;27;20203;-56
2022/04/19 02:07:53;;;;;;;6.13;4.70;;;6.80;83.00;;;;;;5136830;27;20199;-58
2022/04/19 02:10:21;;;;;;;5.10;4.60;;;6.80;83.50;;;;;;5137090;27;20199;-57
2022/04/19 02:12:49;;;;;;;4.82;4.30;;;6.80;83.70;;;;;;5137133;27;20226;-58
2022/04/19 02:15:18;;;;;;;5.82;4.40;;;6.70;83.90;;;;;;5136569;27;20211;-59
2022/04/19 02:17:47;;;;;;;6.80;4.60;;;6.70;84.40;;;;;;5136573;27;20783;-58
2022/04/19 02:20:16;;;;;;;5.20;4.03;;;6.60;85.00;;;;;;5136369;27;20678;-57
2022/04/19 02:22:44;;;;;;;5.47;4.32;;;6.60;85.30;;;;;;5136403;27;20219;-57
2022/04/19 02:25:13;;;;;;;6.22;4.85;;;6.60;85.60;;;;;;5136411;27;20195;-58
2022/04/19 02:27:41;;;;;;;5.97;4.63;;;6.50;86.00;;;;;;5136526;27;20203;-57
2022/04/19 02:30:13;;;;;;;5.80;5.20;;;6.50;86.30;;;;;;5136540;27;20195;-58
2022/04/19 02:32:42;;;;;;;5.40;4.50;;;6.50;86.70;;;;;;5136302;27;20227;-57
2022/04/19 02:35:10;;;;;;;5.35;4.50;;;6.40;87.10;;;;;;5136276;27;20634;-58
2022/04/19 02:37:38;;;;;;;4.70;4.30;;;6.40;87.60;;;;;;5136323;27;20294;-58
2022/04/19 02:40:07;;;;;;;4.97;4.50;;;6.30;87.90;;;;;;5136146;27;20242;-58
2022/04/19 02:42:34;;;;;;;6.10;4.78;;;6.30;88.20;;;;;;5135819;27;20222;-58
2022/04/19 02:45:03;;;;;;;6.10;5.00;;;6.30;88.80;;;;;;5135915;27;20191;-57
2022/04/19 02:47:31;;;;;;;7.30;5.30;;;6.30;89.40;;;;;;5135613;27;20252;-57
2022/04/19 02:49:59;;;;;;;5.45;4.95;;;6.30;89.60;;;;;;5135317;27;20248;-57
2022/04/19 02:52:27;;;;;;;5.78;5.25;;;6.30;89.90;;;;;;5135633;27;20252;-57
2022/04/19 02:54:54;;;;;;;6.00;5.40;;;6.30;89.90;;;;;;5136027;27;20269;-57
2022/04/19 02:57:21;;;;;;;5.10;4.60;;;6.30;90.00;;;;;;5135202;27;20728;-57
2022/04/19 02:59:48;;;;;;;4.80;4.40;;;6.30;90.10;;;;;;5135251;27;20662;-58
2022/04/19 03:02:17;;;;;;;5.75;5.05;;;6.30;90.30;;;;;;5135382;27;20203;-57
2022/04/19 03:04:44;;;;;;;5.60;4.82;;;6.20;90.40;;;;;;5135454;27;20631;-58
2022/04/19 03:07:14;;;;;;;4.85;4.35;;;6.20;90.60;;;;;;5136116;27;20202;-57
2022/04/19 03:09:41;;;;;;;4.53;4.13;;;6.10;90.70;;;;;;5134862;27;20230;-57
2022/04/19 03:12:10;;;;;;;4.90;4.40;;;6.10;91.00;;;;;;5135120;27;20231;-56
2022/04/19 03:14:38;;;;;;;6.28;5.68;;;6.10;91.20;;;;;;5134843;27;20225;-58
2022/04/19 03:17:05;;;;;;;5.45;4.95;;;6.10;91.30;;;;;;5134801;27;20293;-57
2022/04/19 03:19:33;;;;;;;4.95;4.55;;;6.10;91.40;;;;;;5135052;27;20217;-58
2022/04/19 03:22:00;;;;;;;5.07;4.63;;;6.10;91.60;;;;;;5134753;27;20210;-57
2022/04/19 03:27:42;;;;;;;10.93;4.80;;;6.00;91.80;;;;;;5135171;27;20638;-58
2022/04/19 03:30:13;;;;;;;5.63;5.00;;;6.00;92.00;;;;;;5134978;27;20218;-57
2022/04/19 03:35:08;;;;;;;5.47;4.32;;;5.90;92.30;;;;;;5092150;28;20711;-55
2022/04/19 03:37:35;;;;;;;6.57;4.95;;;5.90;92.50;;;;;;5093392;28;20203;-55
2022/04/19 03:40:04;;;;;;;6.20;5.10;;;5.80;92.70;;;;;;5094065;28;20204;-55
2022/04/19 03:42:31;;;;;;;7.22;5.03;;;5.70;92.90;;;;;;5095078;28;20211;-55
2022/04/19 03:44:59;;;;;;;6.70;4.88;;;5.70;93.20;;;;;;5094882;28;20219;-55
2022/04/19 03:47:26;;;;;;;5.15;4.75;;;5.70;93.50;;;;;;5094244;28;20709;-55
2022/04/19 03:49:53;;;;;;;5.80;5.20;;;5.70;93.60;;;;;;5090993;28;20281;-55
2022/04/19 03:52:20;;;;;;;5.35;4.85;;;5.70;93.80;;;;;;5072527;28;20224;-54
2022/04/19 03:54:47;;;;;;;5.65;4.93;;;5.60;94.00;;;;;;5073874;28;20217;-57
2022/04/19 03:57:15;;;;;;;5.60;5.10;;;5.60;94.10;;;;;;5073755;28;20197;-55
2022/04/19 03:59:42;;;;;;;5.60;5.07;;;5.60;94.20;;;;;;5072931;28;20228;-56
2022/04/19 04:02:10;;;;;;;7.15;5.00;;;5.60;94.60;;;;;;5073413;28;20217;-53
2022/04/19 04:04:37;;;;;;;6.35;5.15;;;5.60;94.60;;;;;;5072683;28;20221;-55
2022/04/19 04:09:39;;;;;;;5.68;5.05;;;5.50;94.70;;;;;;5127251;27;20940;-55
2022/04/19 04:12:09;;;;;;;5.50;4.95;;;5.50;94.90;;;;;;5111055;28;20204;-53
2022/04/19 04:14:36;;;;;;;6.55;4.95;;;5.50;95.00;;;;;;5110721;28;20243;-54
2022/04/19 04:17:04;;;;;;;5.95;5.35;;;5.50;95.10;;;;;;5111477;28;20679;-55
2022/04/19 04:19:31;;;;;;;6.05;5.40;;;5.40;95.20;;;;;;5110753;28;20192;-55
2022/04/19 04:21:58;;;;;;;5.65;4.97;;;5.40;95.70;;;;;;5111549;28;20196;-54
2022/04/19 04:24:25;;;;;;;5.18;4.68;;;5.40;95.80;;;;;;5110497;28;20219;-54
2022/04/19 04:26:54;;;;;;;4.47;4.10;;;5.40;95.90;;;;;;5110615;28;20204;-55
2022/04/19 04:29:21;;;;;;;4.80;4.40;;;5.40;96.00;;;;;;5110478;28;20211;-55
2022/04/19 04:31:48;;;;;;;5.20;4.70;;;5.40;96.10;;;;;;5110760;28;20199;-56
2022/04/19 04:34:16;;;;;;;5.53;4.75;;;5.40;96.30;;;;;;5110797;28;20219;-55
2022/04/19 04:36:43;;;;;;;5.53;4.97;;;5.40;96.30;;;;;;5110636;28;20196;-55
2022/04/19 04:39:10;;;;;;;6.25;4.88;;;5.40;96.20;;;;;;5111021;28;20199;-55
2022/04/19 04:41:37;;;;;;;6.03;4.75;;;5.40;96.10;;;;;;5111615;28;20200;-55
2022/04/19 04:44:06;;;;;;;8.82;5.18;;;5.40;96.30;;;;;;5110765;28;20215;-56
2022/04/19 04:52:12;;;;;;;5.80;5.18;;;5.40;96.50;;;;;;5073724;28;20206;-55
2022/04/19 04:54:41;;;;;;;9.60;5.07;;;5.40;96.60;;;;;;5111135;28;20277;-55
2022/04/19 04:57:08;;;;;;;5.32;4.65;;;5.40;96.60;;;;;;5110404;28;20204;-57
2022/04/19 04:59:38;;;;;;;6.35;5.07;;;5.40;96.60;;;;;;5110280;28;20204;-56
2022/04/19 05:02:05;;;;;;;5.90;5.15;;;5.40;96.50;;;;;;5109853;28;20200;-56
2022/04/19 05:04:33;;;;;;;5.30;4.45;;;5.40;96.50;;;;;;5110627;28;20226;-56
2022/04/19 05:07:00;;;;;;;5.47;4.88;;;5.50;96.50;;;;;;5111828;28;20207;-56
2022/04/19 05:09:27;;;;;;;6.00;5.30;;;5.50;96.40;;;;;;5111974;28;20223;-56
2022/04/19 05:11:55;;;;;;;4.97;4.30;;;5.60;96.20;;;;;;5111591;28;20204;-56
2022/04/19 05:14:23;;;;;;;7.40;4.10;;;5.60;96.20;;;;;;5111264;28;20227;-56
2022/04/19 05:16:51;;;;;;;7.78;5.45;;;5.70;96.10;;;;;;5111318;28;20204;-56
2022/04/19 05:19:19;;;;;;;4.80;4.28;;;5.80;96.00;;;;;;5107684;28;20603;-56
2022/04/19 05:21:46;;;;;;;9.20;4.43;;;5.90;95.80;;;;;;5097728;28;20204;-56
2022/04/19 05:24:13;;;;;;;5.40;4.05;;;5.90;95.50;;;;;;5097971;28;20216;-56
2022/04/19 05:26:40;;;;;;;6.75;4.30;;;6.00;95.20;;;;;;5096981;28;20201;-55
2022/04/19 05:29:07;;;;;;;9.10;5.20;;;6.10;94.80;;;;;;5097629;28;20216;-57
2022/04/19 05:31:34;;;;;;;4.82;4.43;;;6.00;94.50;;;;;;5098250;28;20283;-56
2022/04/19 05:34:03;;;;;;;5.35;4.80;;;6.10;94.20;;;;;;5097143;28;20224;-55
2022/04/19 05:36:30;;;;;;;4.68;3.50;;;6.10;94.00;;;;;;5096730;28;20215;-56
2022/04/19 05:38:57;;;;;;;6.75;5.30;;;6.10;93.80;;;;;;5096965;28;20204;-55
2022/04/19 05:41:24;;;;;;;5.18;4.60;;;6.10;93.60;;;;;;5097115;28;20200;-56
2022/04/19 05:43:51;;;;;;;5.70;5.15;;;6.20;93.50;;;;;;5096557;28;20225;-56
2022/04/19 05:46:20;;;;;;;6.43;4.80;;;6.20;93.20;;;;;;5096678;28;20593;-56
2022/04/19 05:48:48;;;;;;;4.60;4.20;;;6.20;92.90;;;;;;5096982;28;20216;-56
2022/04/19 05:51:16;;;;;;;6.03;4.88;;;6.30;92.80;;;;;;5096718;28;20603;-56
2022/04/19 05:53:43;;;;;;;4.97;4.50;;;6.40;92.50;;;;;;5097173;28;20220;-56
2022/04/19 05:56:11;;;;;;;5.10;4.57;;;6.40;92.20;;;;;;5096406;28;20234;-56
2022/04/19 05:58:38;;;;;;;5.90;4.55;;;6.50;91.90;;;;;;5096499;28;20224;-55
2022/04/19 06:01:06;;;;;;;6.18;4.10;;;6.60;91.50;;;;;;5096226;28;20211;-55
2022/04/19 06:06:19;;;;;;;4.95;4.40;;;6.80;90.50;;;;;;5096311;28;20183;-56
2022/04/19 06:08:46;;;;;;;5.03;4.30;;;6.80;90.10;;;;;;5095827;28;20230;-55
2022/04/19 06:11:13;;;;;;;5.32;4.35;;;6.90;89.50;;;;;;5096447;28;20207;-55
2022/04/19 06:13:40;;;;;;;4.18;3.78;;;7.00;88.70;;;;;;5096384;28;20221;-55
2022/04/19 06:16:07;;;;;;;4.80;4.30;;;7.10;87.80;;;;;;5096017;28;20668;-55
2022/04/19 06:18:36;;;;;;;5.90;4.30;;;7.20;86.50;;;;;;5095660;28;20196;-54
2022/04/19 06:21:04;;;;;;;5.30;4.05;;;7.40;85.30;;;;;;5096439;28;20208;-57
2022/04/19 06:23:34;;;;;;;6.25;3.80;;;7.50;83.10;;;;;;5096070;28;20228;-55
2022/04/19 06:26:02;;;;;;;4.43;3.65;;;7.60;81.00;;;;;;5095542;28;20652;-54
2022/04/19 06:28:29;;;;;;;4.40;3.35;;;7.60;79.00;;;;;;5096179;28;20228;-55
2022/04/19 06:30:56;;;;;;;3.47;3.17;;;7.60;77.20;;;;;;5095573;28;20200;-55
2022/04/19 06:33:23;;;;;;;3.40;3.20;;;7.60;76.00;;;;;;5096698;28;20292;-56
2022/04/19 06:35:51;;;;;;;3.95;3.53;;;7.60;74.20;;;;;;5096355;28;20607;-55
2022/04/19 06:38:18;;;;;;;4.55;2.95;;;7.60;72.90;;;;;;5095523;28;20207;-54
2022/04/19 06:40:46;;;;;;;6.03;3.67;;;7.70;71.80;;;;;;5097413;28;20208;-54
2022/04/19 06:43:13;;;;;;;3.85;3.45;;;7.80;70.80;;;;;;5095338;28;20239;-55
2022/04/19 06:45:43;;;;;;;4.30;3.90;;;7.80;69.70;;;;;;5094811;28;20603;-55
2022/04/19 06:48:10;;;;;;;4.05;3.65;;;7.90;68.80;;;;;;5096129;28;20204;-56
2022/04/19 06:50:38;;;;;;;3.92;3.13;;;8.00;67.60;;;;;;5094973;28;20301;-58
2022/04/19 06:53:06;;;;;;;5.60;3.60;;;8.10;66.60;;;;;;5096508;28;20224;-57
2022/04/19 06:55:34;;;;;;;6.65;3.17;;;8.20;65.30;;;;;;5094527;28;20199;-56
2022/04/19 06:58:02;;;;;;;4.07;3.67;;;8.30;64.20;;;;;;5096015;28;20257;-56
2022/04/19 07:00:30;;;;;;;5.00;3.72;;;8.50;63.70;;;;;;5095046;28;20200;-56
2022/04/19 07:02:57;;;;;;;4.50;3.90;;;8.60;62.90;;;;;;5094819;28;20223;-56
2022/04/19 07:05:24;;;;;;;6.05;3.42;;;8.80;61.40;;;;;;5094933;28;20200;-56
2022/04/19 07:07:51;;;;;;;5.18;3.13;;;8.90;59.80;;;;;;5094629;28;20584;-57
2022/04/19 07:10:18;;;;;;;3.65;3.28;;;9.00;58.60;;;;;;5094468;28;20212;-56
2022/04/19 07:12:45;;;;;;;4.18;3.75;;;9.00;57.40;;;;;;5095218;28;20207;-57
2022/04/19 07:15:14;;;;;;;3.78;3.38;;;9.00;56.60;;;;;;5094508;28;20212;-55
2022/04/19 07:17:43;;;;;;;5.47;3.10;;;9.10;55.80;;;;;;5094890;28;20250;-56
2022/04/19 07:28:24;;;;;;;4.28;3.00;;;9.30;52.20;;;;;;5093648;28;20184;-56
2022/04/19 07:30:52;;;;;;;2.90;2.60;;;9.50;51.70;;;;;;5093505;28;20264;-56
2022/04/19 07:33:19;;;;;;;5.45;3.20;;;9.50;51.10;;;;;;5093819;28;20224;-56
2022/04/19 07:35:47;;;;;;;5.10;3.10;;;9.60;50.60;;;;;;5094028;28;20574;-57
2022/04/19 07:38:15;;;;;;;4.95;2.80;;;9.60;50.40;;;;;;5093578;28;20204;-55
2022/04/19 07:40:44;;;;;;;3.37;3.07;;;9.70;50.10;;;;;;5093856;28;20212;-56
2022/04/19 07:43:11;;;;;;;3.30;2.80;;;9.80;50.10;;;;;;5092921;28;20478;-56
2022/04/19 07:45:38;;;;;;;3.08;2.75;;;9.90;50.00;;;;;;5093220;28;20211;-56
2022/04/19 07:48:07;;;;;;;2.90;2.50;;;10.10;48.50;;;;;;5093169;28;20205;-57
2022/04/19 07:50:35;;;;;;;3.30;2.60;;;10.20;47.80;;;;;;5093235;28;20478;-56
2022/04/19 07:53:02;;;;;;;3.28;2.70;;;10.40;47.40;;;;;;5093571;28;20516;-57
2022/04/19 07:55:29;;;;;;;4.43;2.73;;;10.60;47.00;;;;;;5093200;28;20196;-56
2022/04/19 07:57:56;;;;;;;3.07;2.83;;;10.70;46.30;;;;;;5092935;28;20961;-57
2022/04/19 08:00:27;;;;;;;3.63;2.53;;;10.80;45.50;;;;;;5093548;28;20438;-57
2022/04/19 08:02:54;;;;;;;3.63;2.63;;;10.90;44.60;;;;;;5093581;28;20890;-57
2022/04/19 08:05:23;;;;;;;2.23;2.03;;;11.10;43.80;;;;;;5093020;28;20929;-57
2022/04/19 08:07:50;;;;;;;2.60;2.40;;;11.20;42.70;;;;;;5093348;28;20461;-57
2022/04/19 08:10:18;;;;;;;8.57;2.30;;;11.30;42.00;;;;;;5092930;28;20485;-56
2022/04/19 08:12:45;;;;;;;2.73;2.53;;;11.40;41.70;;;;;;5093233;28;20454;-56
2022/04/19 08:15:13;;;;;;;5.27;2.33;;;11.60;41.20;;;;;;5093359;28;20462;-57
2022/04/19 08:17:40;;;;;;;2.90;2.00;;;11.70;40.80;;;;;;5093065;28;20533;-56
2022/04/19 08:20:08;;;;;;;2.80;2.17;;;11.80;40.20;;;;;;5093299;28;20453;-57
2022/04/19 08:22:37;;;;;;;5.30;2.70;;;11.70;39.80;;;;;;5093491;28;20443;-56
2022/04/19 08:25:06;;;;;;;2.23;1.80;;;11.80;39.50;;;;;;5092905;28;20466;-56
2022/04/19 08:27:33;;;;;;;2.43;2.00;;;11.70;39.10;;;;;;5093025;28;20511;-56
2022/04/19 08:30:02;;;;;;;3.80;1.97;;;11.70;38.70;;;;;;5093111;28;20561;-57
2022/04/19 08:32:30;;;;;;;4.17;2.33;;;11.70;38.50;;;;;;5092754;28;20446;-57
2022/04/19 08:34:57;;;;;;;2.30;1.93;;;11.80;38.10;;;;;;5093190;28;20504;-56
2022/04/19 08:37:29;;;;;;;3.20;1.93;;;11.80;37.50;;;;;;5093043;28;20507;-56
2022/04/19 08:39:58;;;;;;;3.77;1.90;;;11.80;37.10;;;;;;5093556;28;20519;-57
2022/04/19 08:42:26;;;;;;;2.50;1.90;;;11.80;37.20;;;;;;5093035;28;20449;-59
2022/04/19 08:44:53;;;;;;;2.07;1.80;;;12.00;37.00;;;;;;5093206;28;20463;-56
2022/04/19 08:47:22;;;;;;;2.40;2.17;;;12.20;36.70;;;;;;5092624;28;20455;-56
2022/04/19 08:49:50;;;;;;;2.20;1.83;;;12.40;36.30;;;;;;5093420;28;20527;-56
2022/04/19 08:52:17;;;;;;;2.90;2.10;;;12.60;36.00;;;;;;5093854;28;20566;-57
2022/04/19 08:57:30;;;;;;;2.57;2.20;;;12.90;35.60;;;;;;5097548;28;20405;-56
2022/04/19 08:59:57;;;;;;;2.30;2.00;;;13.00;35.40;;;;;;5097614;28;20453;-56
2022/04/19 09:02:27;;;;;;;1.83;1.70;;;13.10;35.20;;;;;;5097336;28;20525;-57
2022/04/19 09:04:55;;;;;;;2.60;2.40;;;13.20;35.00;;;;;;5097021;28;20580;-56
2022/04/19 09:07:35;;;;;;;2.70;2.50;;;13.40;34.70;;;;;;5097117;28;20438;-56
2022/04/19 09:10:02;;;;;;;2.20;2.00;;;13.40;34.00;;;;;;5097207;28;20465;-57
2022/04/19 09:12:31;;;;;;;3.40;2.47;;;13.40;33.60;;;;;;5096708;28;20934;-57
2022/04/19 09:14:59;;;;;;;2.57;2.17;;;13.30;33.60;;;;;;5096943;28;20470;-57
2022/04/19 09:17:34;;;;;;;4.93;2.43;;;13.30;33.80;;;;;;5097044;28;20941;-57
2022/04/19 09:20:15;;;;;;;2.20;2.00;;;13.20;34.10;;;;;;5097662;28;20942;-57
2022/04/19 09:22:42;;;;;;;2.60;2.13;;;13.30;34.20;;;;;;5097286;28;20446;-58
2022/04/19 09:25:20;;;;;;;5.93;2.33;;;13.30;34.30;;;;;;5097490;28;20445;-58
2022/04/19 09:27:50;;;;;;;2.90;2.13;;;13.50;34.40;;;;;;5097865;28;20430;-58
2022/04/19 09:30:19;;;;;;;4.10;1.67;;;13.60;34.30;;;;;;5096977;28;20531;-57
2022/04/19 09:33:07;;;;;;;7.63;2.47;;;13.60;34.40;;;;;;5096964;28;20443;-58
2022/04/19 09:35:36;;;;;;;4.03;2.00;;;13.60;34.50;;;;;;5127248;22;20883;-54
2022/04/19 09:38:04;;;;;;;2.37;1.83;;;13.70;34.60;;;;;;5097659;28;20443;-58
2022/04/19 09:40:33;;;;;;;2.50;1.60;;;13.90;34.50;;;;;;5096171;28;20473;-56
2022/04/19 09:43:10;;;;;;;3.97;1.80;;;14.00;34.20;;;;;;5095630;28;20438;-56
2022/04/19 09:45:58;;;;;;;2.80;2.10;;;14.20;34.20;;;;;;5095584;28;20498;-57
2022/04/19 09:48:27;;;;;;;3.30;2.60;;;14.30;33.50;;;;;;5096819;28;20821;-57
2022/04/19 09:50:59;;;;;;;1.90;1.50;;;14.40;33.00;;;;;;5095838;28;20488;-57
2022/04/19 09:53:28;;;;;;;1.60;1.50;;;14.40;32.70;;;;;;5096091;28;20431;-58
2022/04/19 09:55:56;;;;;;;1.60;1.50;;;14.30;32.20;;;;;;5097315;28;20558;-57
2022/04/19 09:58:26;;;;;;;2.80;1.40;;;14.20;32.30;;;;;;5097067;28;20453;-57
2022/04/19 10:00:54;;;;;;;3.07;1.40;;;14.20;32.20;;;;;;5096955;28;20918;-58
2022/04/19 10:08:59;;;;;;;1.60;1.20;;;14.50;31.90;;;;;;5081244;28;20452;-57
2022/04/19 10:11:28;;;;;;;2.37;1.50;;;14.50;31.60;;;;;;5096966;28;20454;-56
2022/04/19 10:13:57;;;;;;;4.27;3.30;;;14.50;32.00;;;;;;5097809;28;20938;-57
2022/04/19 10:16:25;;;;;;;6.10;5.03;;;14.40;32.30;;;;;;5096836;28;20478;-56
2022/04/19 10:18:52;;;;;;;2.80;2.00;;;14.40;32.60;;;;;;5097621;28;20450;-58
2022/04/19 10:21:23;;;;;;;2.30;1.63;;;14.50;32.80;;;;;;5096909;28;20461;-57
2022/04/19 10:23:51;;;;;;;2.57;1.83;;;14.60;32.50;;;;;;5096386;28;20439;-58
2022/04/19 10:26:21;;;;;;;3.23;1.90;;;14.80;32.50;;;;;;5096246;28;20930;-56
2022/04/19 10:28:49;;;;;;;1.83;1.60;;;14.90;32.20;;;;;;5096057;28;20443;-58
2022/04/19 10:31:26;;;;;;;2.27;1.80;;;15.00;32.00;;;;;;5096205;28;20504;-58
2022/04/19 10:33:54;;;;;;;1.70;1.60;;;15.10;31.90;;;;;;5096015;28;20514;-58
2022/04/19 10:36:23;;;;;;;2.60;2.40;;;15.20;31.80;;;;;;5095572;28;20553;-58
2022/04/19 10:39:25;;;;;;;3.53;2.27;;;15.30;31.70;;;;;;5095093;28;20451;-58
2022/04/19 10:41:56;;;;;;;3.50;2.33;;;15.30;31.20;;;;;;5094744;28;20454;-58
2022/04/19 10:44:36;;;;;;;2.30;1.73;;;15.20;30.90;;;;;;5094990;28;20851;-58
2022/04/19 10:47:11;;;;;;;2.40;1.70;;;15.10;30.20;;;;;;5094981;28;20426;-58
2022/04/19 10:50:02;;;;;;;2.70;1.77;;;15.00;30.30;;;;;;5095186;28;20545;-59
2022/04/19 10:52:48;;;;;;;3.23;1.77;;;15.20;30.50;;;;;;5079442;28;20486;-57
2022/04/19 10:55:23;;;;;;;2.40;1.80;;;15.20;30.20;;;;;;5094078;28;20462;-58
2022/04/19 10:58:08;;;;;;;4.60;2.03;;;15.30;30.30;;;;;;5094271;28;20437;-57
2022/04/19 11:00:56;;;;;;;3.00;1.67;;;15.30;30.30;;;;;;5094924;28;20460;-58
2022/04/19 11:03:47;;;;;;;2.80;1.80;;;15.50;30.10;;;;;;5095703;28;20533;-58
2022/04/19 11:06:38;;;;;;;2.27;2.07;;;15.50;29.50;;;;;;5095438;28;20430;-59
2022/04/19 11:09:28;;;;;;;2.40;1.63;;;15.50;29.60;;;;;;5094122;28;20434;-56
2022/04/19 11:12:08;;;;;;;6.70;2.00;;;15.50;29.40;;;;;;5091109;28;20466;-58
2022/04/19 11:14:40;;;;;;;1.60;1.47;;;15.40;29.10;;;;;;5094631;28;20462;-58
2022/04/19 11:17:29;;;;;;;1.50;1.40;;;15.40;29.00;;;;;;5093953;28;20427;-56
2022/04/19 11:20:06;;;;;;;1.83;1.63;;;15.70;28.80;;;;;;5094652;28;20446;-57
2022/04/19 11:22:51;;;;;;;3.00;1.87;;;15.70;27.90;;;;;;5094495;28;20480;-56
2022/04/19 11:25:36;;;;;;;10.60;1.67;;;15.60;27.70;;;;;;5094279;28;20897;-58
2022/04/19 11:28:33;;;;;;;2.33;1.60;;;15.60;27.90;;;;;;5094211;28;20850;-57
2022/04/19 11:31:15;;;;;;;2.03;1.33;;;15.70;27.80;;;;;;5095747;28;20830;-57
2022/04/19 11:33:42;;;;;;;5.17;1.70;;;15.80;27.60;;;;;;5095174;28;20442;-57
2022/04/19 11:36:14;;;;;;;1.83;1.60;;;15.90;27.60;;;;;;5094805;28;20956;-54
2022/04/19 11:38:43;;;;;;;1.40;1.30;;;16.10;27.40;;;;;;5094646;28;20435;-57
2022/04/19 11:46:48;;;;;;;1.90;1.30;;;16.30;26.00;;;;;;5093795;28;20909;-57
2022/04/19 11:49:29;;;;;;;2.57;1.60;;;16.80;25.90;;;;;;5094660;28;20434;-57
2022/04/19 11:51:59;;;;;;;1.83;1.73;;;17.50;25.40;;;;;;5093680;28;20957;-57
2022/04/19 11:54:28;;;;;;;1.60;1.40;;;18.10;25.10;;;;;;5099217;28;20470;-53
2022/04/19 11:56:56;;;;;;;3.10;2.50;;;18.50;24.50;;;;;;5093092;28;20442;-59
2022/04/19 11:59:27;;;;;;;1.77;1.47;;;18.60;24.10;;;;;;5093076;28;20460;-58
2022/04/19 12:01:55;;;;;;;2.00;1.63;;;18.60;23.80;;;;;;5092995;28;20533;-57
2022/04/19 12:04:23;;;;;;;2.77;1.77;;;18.70;23.90;;;;;;5092875;28;20487;-57
2022/04/19 12:06:52;;;;;;;2.60;1.70;;;18.90;23.80;;;;;;5093066;28;20946;-58
2022/04/19 12:09:22;;;;;;;2.07;1.80;;;19.20;23.80;;;;;;5093076;28;20813;-58
2022/04/19 12:11:49;;;;;;;2.30;1.67;;;19.50;23.80;;;;;;5092750;28;20468;-59
2022/04/19 12:14:30;;;;;;;1.53;1.30;;;19.80;23.40;;;;;;5093031;28;20996;-59
2022/04/19 12:16:59;;;;;;;2.23;1.60;;;19.90;22.60;;;;;;5093517;28;20439;-59
2022/04/19 12:19:39;;;;;;;1.93;1.40;;;19.80;22.40;;;;;;5093056;28;21066;-58
2022/04/19 12:22:17;;;;;;;2.80;1.60;;;19.70;22.40;;;;;;5093329;28;20496;-57
2022/04/19 12:24:53;;;;;;;1.77;1.47;;;19.10;22.50;;;;;;5093292;28;20463;-58
2022/04/19 12:27:25;;;;;;;1.30;1.00;;;18.50;23.00;;;;;;5096948;28;20473;-59
2022/04/19 12:29:58;;;;;;;1.53;1.17;;;18.00;23.30;;;;;;5102882;28;20430;-59
2022/04/19 12:32:25;;;;;;;1.43;1.10;;;17.50;23.60;;;;;;5101538;28;20450;-60
2022/04/19 12:35:07;;;;;;;1.93;1.30;;;17.20;23.80;;;;;;5102772;28;20489;-60
2022/04/19 12:37:34;;;;;;;1.13;0.90;;;17.00;23.90;;;;;;5101913;28;20435;-58
2022/04/19 12:40:04;;;;;;;2.30;1.17;;;16.90;23.80;;;;;;5099587;28;20446;-58
2022/04/19 12:42:47;;;;;;;2.13;1.30;;;16.80;23.90;;;;;;5099049;28;20438;-56
2022/04/19 12:45:14;;;;;;;2.40;1.03;;;16.70;24.00;;;;;;5098016;28;20480;-58
2022/04/19 12:47:46;;;;;;;1.50;1.20;;;16.50;24.20;;;;;;5097849;28;20456;-58
2022/04/19 12:50:15;;;;;;;2.17;1.20;;;16.60;24.50;;;;;;5097262;28;20549;-58
2022/04/19 12:52:43;;;;;;;1.47;1.33;;;16.70;24.70;;;;;;5096897;28;20531;-59
2022/04/19 12:55:12;;;;;;;2.80;1.20;;;16.70;24.60;;;;;;5097187;28;20515;-59
2022/04/19 12:57:40;;;;;;;1.77;1.03;;;16.80;24.80;;;;;;5098293;28;20453;-58
2022/04/19 13:00:09;;;;;;;2.20;1.40;;;16.80;25.00;;;;;;5096823;28;20452;-59
2022/04/19 13:02:37;;;;;;;2.80;1.47;;;16.90;25.10;;;;;;5096620;28;20446;-58
2022/04/19 13:05:05;;;;;;;2.50;1.30;;;16.90;25.30;;;;;;5096693;28;20505;-57
2022/04/19 13:13:04;;;;;;;1.70;1.40;;;16.80;25.40;;;;;;5100997;28;20403;-60
2022/04/19 13:15:32;;;;;;;1.93;1.30;;;16.70;25.50;;;;;;5100116;28;20477;-58
2022/04/19 13:17:59;;;;;;;2.40;1.67;;;16.70;25.70;;;;;;5098828;28;20470;-57
2022/04/19 13:20:26;;;;;;;4.33;1.10;;;16.80;26.10;;;;;;5097804;28;20465;-57
2022/04/19 13:22:54;;;;;;;2.40;1.37;;;16.90;25.90;;;;;;5098764;28;20481;-57
2022/04/19 13:25:22;;;;;;;7.77;1.90;;;16.90;25.90;;;;;;5098912;28;20485;-57
2022/04/19 13:27:50;;;;;;;1.73;1.47;;;17.00;25.90;;;;;;5098605;28;20448;-58
2022/04/19 13:30:19;;;;;;;5.17;1.27;;;17.00;25.90;;;;;;5098023;28;20489;-57
2022/04/19 13:32:46;;;;;;;1.80;1.30;;;17.00;25.60;;;;;;5097884;28;20529;-57
2022/04/19 13:35:14;;;;;;;1.60;1.50;;;16.90;25.70;;;;;;5097984;28;20477;-57
2022/04/19 13:40:27;;;;;;;1.63;1.10;;;16.80;26.00;;;;;;5096382;28;20391;-57
2022/04/19 13:42:55;;;;;;;2.80;1.63;;;16.90;26.00;;;;;;5096468;28;20446;-56
2022/04/19 13:45:22;;;;;;;2.10;1.43;;;16.90;26.00;;;;;;5096183;28;20466;-56
2022/04/19 13:47:49;;;;;;;3.20;1.30;;;16.80;25.90;;;;;;5096424;28;20507;-56
2022/04/19 13:50:16;;;;;;;4.93;1.67;;;16.90;26.10;;;;;;5095982;28;20440;-58
2022/04/19 13:52:44;;;;;;;2.70;1.30;;;17.00;26.20;;;;;;5096697;28;20442;-56
2022/04/19 13:55:15;;;;;;;2.80;1.27;;;17.00;25.70;;;;;;5096588;28;20467;-57